createdAt,value
2022-12-28T00:02:25.469Z,2.44
2022-12-28T00:04:55.120Z,2.43
2022-12-28T00:07:25.082Z,2.43
2022-12-28T00:09:54.799Z,2.43
2022-12-28T00:12:24.767Z,2.42
2022-12-28T00:14:56.727Z,2.40
2022-12-28T00:17:26.426Z,2.39
2022-12-28T00:19:57.432Z,2.39
2022-12-28T00:22:28.419Z,2.43
2022-12-28T00:24:58.117Z,2.46
2022-12-28T00:27:27.643Z,2.47
2022-12-28T00:29:57.197Z,2.50
2022-12-28T00:32:30.117Z,2.54
2022-12-28T00:34:59.790Z,2.58
2022-12-28T00:37:29.992Z,2.62
2022-12-28T00:39:59.864Z,2.62
2022-12-28T00:42:29.595Z,2.60
2022-12-28T00:44:59.644Z,2.56
2022-12-28T00:47:29.331Z,2.51
2022-12-28T00:49:59.097Z,2.47
2022-12-28T00:52:28.982Z,2.44
2022-12-28T00:54:58.891Z,2.41
2022-12-28T00:57:28.457Z,2.35
2022-12-28T00:59:58.167Z,2.30
2022-12-28T01:02:27.459Z,2.28
2022-12-28T01:04:56.747Z,2.26
2022-12-28T01:07:25.922Z,2.22
2022-12-28T01:09:55.116Z,2.16
2022-12-28T01:12:24.351Z,2.13
2022-12-28T01:14:53.848Z,2.11
2022-12-28T01:17:23.661Z,2.12
2022-12-28T01:19:55.539Z,2.11
2022-12-28T01:22:25.097Z,2.11
2022-12-28T01:24:55.243Z,2.10
2022-12-28T01:27:25.460Z,2.11
2022-12-28T01:29:54.888Z,2.11
2022-12-28T01:32:26.275Z,2.08
2022-12-28T01:34:56.045Z,2.03
2022-12-28T01:37:25.747Z,2.00
2022-12-28T01:39:55.415Z,1.96
2022-12-28T01:42:27.128Z,1.91
2022-12-28T01:44:56.827Z,1.86
2022-12-28T01:47:35.243Z,1.82
2022-12-28T01:50:15.905Z,1.79
2022-12-28T01:53:01.804Z,1.77
2022-12-28T01:55:36.074Z,1.74
2022-12-28T01:58:16.769Z,1.72
2022-12-28T02:00:46.898Z,1.71
2022-12-28T02:03:26.364Z,1.70
2022-12-28T02:06:02.444Z,1.66
2022-12-28T02:08:47.053Z,1.63
2022-12-28T02:11:19.341Z,1.59
2022-12-28T02:13:51.665Z,1.53
2022-12-28T02:16:24.742Z,1.40
2022-12-28T02:18:55.191Z,1.37
2022-12-28T02:21:44.173Z,1.35
2022-12-28T02:25:12.300Z,1.32
2022-12-28T02:28:29.173Z,1.27
2022-12-28T02:31:12.026Z,1.23
2022-12-28T02:34:05.029Z,1.18
2022-12-28T02:36:42.928Z,1.14
2022-12-28T02:39:25.526Z,1.12
2022-12-28T02:41:56.665Z,1.11
2022-12-28T02:44:44.699Z,1.08
2022-12-28T02:47:35.872Z,1.04
2022-12-28T02:50:09.384Z,1.01
2022-12-28T02:52:44.392Z,0.96
2022-12-28T02:56:08.745Z,0.91
2022-12-28T02:59:06.034Z,0.86
2022-12-28T03:01:54.486Z,0.87
2022-12-28T03:04:40.885Z,0.89
2022-12-28T03:07:38.605Z,0.89
2022-12-28T03:10:21.431Z,0.89
2022-12-28T03:13:01.795Z,0.88
2022-12-28T03:15:38.383Z,0.88
2022-12-28T03:18:38.639Z,0.90
2022-12-28T03:21:30.084Z,0.89
2022-12-28T03:24:20.143Z,0.89
2022-12-28T03:27:12.204Z,0.89
2022-12-28T03:30:17.464Z,0.90
2022-12-28T03:32:48.623Z,0.88
2022-12-28T03:35:20.863Z,0.88
2022-12-28T03:37:58.673Z,0.88
2022-12-28T03:40:47.842Z,0.81
2022-12-28T03:43:44.301Z,0.78
2022-12-28T03:46:32.077Z,0.73
2022-12-28T03:49:02.868Z,0.68
2022-12-28T03:51:34.734Z,0.69
2022-12-28T03:54:19.092Z,0.71
2022-12-28T03:56:51.908Z,0.71
2022-12-28T03:59:23.567Z,0.72
2022-12-28T04:01:54.324Z,0.71
2022-12-28T04:04:23.687Z,0.71
2022-12-28T04:06:53.383Z,0.68
2022-12-28T04:09:23.136Z,0.68
2022-12-28T04:11:52.525Z,0.66
2022-12-28T04:14:28.022Z,0.65
2022-12-28T04:16:57.475Z,0.64
2022-12-28T04:19:28.084Z,0.62
2022-12-28T04:21:57.328Z,0.61
2022-12-28T04:24:26.626Z,0.60
2022-12-28T04:26:56.138Z,0.60
2022-12-28T04:29:25.443Z,0.59
2022-12-28T04:32:05.449Z,0.57
2022-12-28T04:34:34.689Z,0.56
2022-12-28T04:37:10.884Z,0.55
2022-12-28T04:39:55.824Z,0.54
2022-12-28T04:42:26.708Z,0.51
2022-12-28T04:44:55.779Z,0.48
2022-12-28T04:47:24.919Z,0.44
2022-12-28T04:49:54.096Z,0.41
2022-12-28T04:52:23.475Z,0.40
2022-12-28T04:54:52.898Z,0.41
2022-12-28T04:57:22.000Z,0.43
2022-12-28T04:59:51.134Z,0.41
2022-12-28T05:02:20.467Z,0.37
2022-12-28T05:04:49.808Z,0.34
2022-12-28T05:07:18.946Z,0.32
2022-12-28T05:09:48.139Z,0.32
2022-12-28T05:12:17.214Z,0.32
2022-12-28T05:14:46.374Z,0.33
2022-12-28T05:17:15.889Z,0.34
2022-12-28T05:19:45.007Z,0.33
2022-12-28T05:22:15.726Z,0.31
2022-12-28T05:24:46.630Z,0.31
2022-12-28T05:27:15.901Z,0.33
2022-12-28T05:29:45.186Z,0.37
2022-12-28T05:32:17.441Z,0.42
2022-12-28T05:34:48.115Z,0.47
2022-12-28T05:37:22.337Z,0.52
2022-12-28T05:39:51.930Z,0.50
2022-12-28T05:42:21.142Z,0.53
2022-12-28T05:44:53.054Z,0.57
2022-12-28T05:47:22.611Z,0.60
2022-12-28T05:49:52.139Z,0.62
2022-12-28T05:52:21.702Z,0.63
2022-12-28T05:54:51.040Z,0.63
2022-12-28T05:57:20.399Z,0.63
2022-12-28T05:59:49.490Z,0.64
2022-12-28T06:02:24.413Z,0.65
2022-12-28T06:04:54.898Z,0.65
2022-12-28T06:07:24.007Z,0.66
2022-12-28T06:09:53.069Z,0.70
2022-12-28T06:12:22.261Z,0.75
2022-12-28T06:14:51.269Z,0.77
2022-12-28T06:17:20.262Z,0.80
2022-12-28T06:19:49.519Z,0.83
2022-12-28T06:22:18.790Z,0.84
2022-12-28T06:24:47.976Z,0.84
2022-12-28T06:27:17.281Z,0.83
2022-12-28T06:29:46.501Z,0.81
2022-12-28T06:32:15.574Z,0.81
2022-12-28T06:34:44.788Z,0.80
2022-12-28T06:37:16.654Z,0.76
2022-12-28T06:39:47.948Z,0.76
2022-12-28T06:42:17.119Z,0.76
2022-12-28T06:44:49.340Z,0.75
2022-12-28T06:47:18.546Z,0.68
2022-12-28T06:49:48.556Z,0.67
2022-12-28T06:52:18.054Z,0.68
2022-12-28T06:54:47.608Z,0.69
2022-12-28T06:57:17.175Z,0.71
2022-12-28T06:59:47.425Z,0.74
2022-12-28T07:02:17.215Z,0.78
2022-12-28T07:04:46.952Z,0.84
2022-12-28T07:07:16.741Z,0.90
2022-12-28T07:09:46.436Z,0.94
2022-12-28T07:12:15.761Z,0.95
2022-12-28T07:14:45.141Z,0.97
2022-12-28T07:17:15.050Z,0.96
2022-12-28T07:19:44.784Z,0.98
2022-12-28T07:22:16.769Z,0.97
2022-12-28T07:24:50.624Z,0.97
2022-12-28T07:27:20.430Z,0.99
2022-12-28T07:29:49.789Z,1.02
2022-12-28T07:32:18.920Z,1.07
2022-12-28T07:34:48.161Z,1.10
2022-12-28T07:37:17.285Z,1.14
2022-12-28T07:39:46.410Z,1.21
2022-12-28T07:42:15.562Z,1.28
2022-12-28T07:44:49.046Z,1.33
2022-12-28T07:47:18.732Z,1.42
2022-12-28T07:49:47.915Z,1.52
2022-12-28T07:52:17.175Z,1.61
2022-12-28T07:54:46.460Z,1.71
2022-12-28T07:57:15.917Z,1.83
2022-12-28T07:59:45.003Z,1.92
2022-12-28T08:02:14.500Z,2.01
2022-12-28T08:04:51.993Z,2.11
2022-12-28T08:07:22.132Z,2.22
2022-12-28T08:09:51.568Z,2.30
2022-12-28T08:12:21.502Z,2.41
2022-12-28T08:14:50.632Z,2.48
2022-12-28T08:17:21.345Z,2.56
2022-12-28T08:19:51.330Z,2.65
2022-12-28T08:22:22.702Z,2.77
2022-12-28T08:24:55.904Z,2.82
2022-12-28T08:27:25.593Z,2.89
2022-12-28T08:29:54.911Z,2.90
2022-12-28T08:32:24.350Z,2.91
2022-12-28T08:34:53.702Z,2.96
2022-12-28T08:37:23.487Z,3.04
2022-12-28T08:39:52.906Z,3.12
2022-12-28T08:42:22.269Z,3.19
2022-12-28T08:44:51.765Z,3.24
2022-12-28T08:47:21.400Z,3.27
2022-12-28T08:49:50.796Z,3.35
2022-12-28T08:52:20.017Z,3.41
2022-12-28T08:54:49.371Z,3.39
2022-12-28T08:57:18.621Z,3.37
2022-12-28T08:59:48.907Z,3.41
2022-12-28T09:02:18.335Z,3.46
2022-12-28T09:04:47.619Z,3.46
2022-12-28T09:07:17.118Z,3.46
2022-12-28T09:09:46.367Z,3.45
2022-12-28T09:12:15.519Z,3.47
2022-12-28T09:14:45.067Z,3.47
2022-12-28T09:17:14.947Z,3.45
2022-12-28T09:19:45.791Z,3.49
2022-12-28T09:22:15.523Z,3.55
2022-12-28T09:24:44.997Z,3.69
2022-12-28T09:27:14.589Z,3.81
2022-12-28T09:29:43.858Z,3.91
2022-12-28T09:32:13.611Z,3.99
2022-12-28T09:34:45.966Z,4.10
2022-12-28T09:37:15.457Z,4.18
2022-12-28T09:39:45.194Z,4.18
2022-12-28T09:42:25.462Z,4.15
2022-12-28T09:45:12.648Z,4.18
2022-12-28T09:47:52.098Z,4.15
2022-12-28T09:50:35.151Z,4.06
2022-12-28T09:53:36.723Z,4.02
2022-12-28T09:56:34.401Z,3.97
2022-12-28T09:59:07.468Z,3.94
2022-12-28T10:01:42.049Z,3.98
2022-12-28T10:04:13.812Z,4.03
2022-12-28T10:06:45.148Z,4.07
2022-12-28T10:09:29.295Z,4.10
2022-12-28T10:12:01.443Z,4.13
2022-12-28T10:14:35.763Z,4.19
2022-12-28T10:17:07.442Z,4.24
2022-12-28T10:19:36.554Z,4.29
2022-12-28T10:22:10.955Z,4.36
2022-12-28T10:24:40.976Z,4.39
2022-12-28T10:27:29.851Z,4.43
2022-12-28T10:30:02.820Z,4.44
2022-12-28T10:32:56.716Z,4.47
2022-12-28T10:35:56.708Z,4.59
2022-12-28T10:38:55.793Z,4.69
2022-12-28T10:41:40.974Z,4.70
2022-12-28T10:44:39.322Z,4.76
2022-12-28T10:47:46.015Z,4.90
2022-12-28T10:51:15.795Z,4.95
2022-12-28T10:54:01.235Z,5.12
2022-12-28T10:56:44.493Z,5.41
2022-12-28T10:59:13.774Z,5.70
2022-12-28T11:01:45.525Z,5.98
2022-12-28T11:04:24.434Z,6.20
2022-12-28T11:07:02.869Z,6.19
2022-12-28T11:09:36.543Z,6.04
2022-12-28T11:12:29.119Z,5.88
2022-12-28T11:15:01.675Z,5.70
2022-12-28T11:17:40.047Z,5.65
2022-12-28T11:20:22.140Z,5.62
2022-12-28T11:22:55.304Z,5.62
2022-12-28T11:25:35.522Z,5.60
2022-12-28T11:28:24.291Z,5.60
2022-12-28T11:30:57.491Z,5.62
2022-12-28T11:33:45.155Z,5.63
2022-12-28T11:36:27.244Z,5.63
2022-12-28T11:39:25.793Z,5.64
2022-12-28T11:44:54.346Z,5.62
2022-12-28T11:47:39.388Z,5.61
2022-12-28T11:50:37.065Z,5.57
2022-12-28T11:53:33.755Z,5.59
2022-12-28T11:56:10.080Z,5.60
2022-12-28T11:58:42.496Z,5.59
2022-12-28T12:01:35.634Z,5.59
2022-12-28T12:04:04.871Z,5.56
2022-12-28T12:06:48.168Z,5.64
2022-12-28T12:09:21.976Z,5.76
2022-12-28T12:12:25.064Z,5.83
2022-12-28T12:15:43.037Z,5.85
2022-12-28T12:18:24.067Z,5.88
2022-12-28T12:21:10.248Z,5.88
2022-12-28T12:23:56.668Z,5.92
2022-12-28T12:26:45.598Z,5.92
2022-12-28T12:29:48.111Z,5.92
2022-12-28T12:32:30.812Z,5.95
2022-12-28T12:35:12.346Z,5.98
2022-12-28T12:38:37.302Z,6.02
2022-12-28T12:41:46.312Z,6.02
2022-12-28T12:45:07.984Z,6.00
2022-12-28T12:48:36.976Z,5.89
2022-12-28T12:51:51.591Z,5.83
2022-12-28T12:55:11.846Z,5.83
2022-12-28T12:58:05.816Z,5.85
2022-12-28T13:01:07.371Z,5.88
2022-12-28T13:03:52.849Z,5.88
2022-12-28T13:06:30.454Z,5.91
2022-12-28T13:09:05.936Z,5.95
2022-12-28T13:11:39.482Z,5.96
2022-12-28T13:14:37.987Z,6.01
2022-12-28T13:17:32.475Z,6.00
2022-12-28T13:20:26.158Z,6.02
2022-12-28T13:22:59.587Z,6.06
2022-12-28T13:25:35.292Z,6.12
2022-12-28T13:28:07.132Z,6.13
2022-12-28T13:30:39.946Z,6.18
2022-12-28T13:33:22.831Z,6.22
2022-12-28T13:39:24.118Z,6.19
2022-12-28T13:42:17.181Z,6.17
2022-12-28T13:44:58.544Z,6.14
2022-12-28T13:47:43.897Z,6.11
2022-12-28T13:50:30.711Z,6.11
2022-12-28T13:53:25.864Z,6.15
2022-12-28T13:56:06.120Z,6.13
2022-12-28T13:58:42.895Z,6.11
2022-12-28T14:01:20.303Z,6.11
2022-12-28T14:04:33.703Z,6.10
2022-12-28T14:06:51.566Z,6.10
2022-12-28T14:09:24.460Z,6.11
2022-12-28T14:11:57.540Z,6.13
2022-12-28T14:14:29.203Z,6.14
2022-12-28T14:17:03.183Z,6.14
2022-12-28T14:19:36.069Z,6.15
2022-12-28T14:22:37.157Z,6.16
2022-12-28T14:25:17.546Z,6.16
2022-12-28T14:28:50.237Z,6.15
2022-12-28T14:32:06.844Z,6.07
2022-12-28T14:34:39.151Z,6.05
2022-12-28T14:37:27.089Z,6.07
2022-12-28T14:40:07.359Z,6.10
2022-12-28T14:42:36.855Z,6.13
2022-12-28T14:46:07.576Z,6.20
2022-12-28T14:51:33.513Z,6.29
2022-12-28T14:54:43.592Z,6.33
2022-12-28T14:57:44.423Z,6.32
2022-12-28T15:00:27.131Z,6.28
2022-12-28T15:03:11.760Z,6.25
2022-12-28T15:05:54.824Z,6.25
2022-12-28T15:08:27.706Z,6.25
2022-12-28T15:11:00.898Z,6.25
2022-12-28T15:13:35.729Z,6.28
2022-12-28T15:16:06.817Z,6.34
2022-12-28T15:18:45.025Z,6.38
2022-12-28T15:21:24.894Z,6.38
2022-12-28T15:23:58.304Z,6.38
2022-12-28T15:26:28.165Z,6.39
2022-12-28T15:28:57.721Z,6.42
2022-12-28T15:31:27.229Z,6.40
2022-12-28T15:33:58.914Z,6.43
2022-12-28T15:36:28.897Z,6.44
2022-12-28T15:38:59.678Z,6.45
2022-12-28T15:41:47.713Z,6.46
2022-12-28T15:44:23.438Z,6.48
2022-12-28T15:46:53.811Z,6.50
2022-12-28T15:49:33.984Z,6.53
2022-12-28T15:52:05.835Z,6.54
2022-12-28T15:54:36.865Z,6.54
2022-12-28T15:57:17.039Z,6.56
2022-12-28T15:59:47.376Z,6.58
2022-12-28T16:02:17.910Z,6.58
2022-12-28T16:04:47.911Z,6.59
2022-12-28T16:07:20.967Z,6.63
2022-12-28T16:09:54.479Z,6.70
2022-12-28T16:12:25.674Z,6.69
2022-12-28T16:15:01.581Z,6.68
2022-12-28T16:17:53.034Z,6.69
2022-12-28T16:20:32.544Z,6.70
2022-12-28T16:23:14.302Z,6.70
2022-12-28T16:26:00.096Z,6.71
2022-12-28T16:28:30.924Z,6.72
2022-12-28T16:31:01.398Z,6.74
2022-12-28T16:33:35.673Z,6.77
2022-12-28T16:36:21.686Z,6.81
2022-12-28T16:38:59.378Z,6.86
2022-12-28T16:41:36.358Z,6.91
2022-12-28T16:44:21.974Z,6.93
2022-12-28T16:46:58.436Z,6.90
2022-12-28T16:49:35.246Z,6.89
2022-12-28T16:52:10.733Z,6.87
2022-12-28T16:54:43.772Z,6.86
2022-12-28T16:57:15.491Z,6.88
2022-12-28T16:59:47.352Z,6.91
2022-12-28T17:02:17.640Z,6.91
2022-12-28T17:04:53.733Z,6.90
2022-12-28T17:07:31.180Z,6.87
2022-12-28T17:10:01.000Z,6.85
2022-12-28T17:12:30.823Z,6.85
2022-12-28T17:15:04.837Z,6.82
2022-12-28T17:17:37.951Z,6.79
2022-12-28T17:20:08.700Z,6.77
2022-12-28T17:22:39.880Z,6.77
2022-12-28T17:25:09.877Z,6.77
2022-12-28T17:27:42.238Z,6.77
2022-12-28T17:30:14.908Z,6.77
2022-12-28T17:32:44.876Z,6.78
2022-12-28T17:35:16.684Z,6.79
2022-12-28T17:37:49.661Z,6.79
2022-12-28T17:40:20.820Z,6.81
2022-12-28T17:42:50.185Z,6.85
2022-12-28T17:45:19.967Z,6.89
2022-12-28T17:47:49.224Z,6.90
2022-12-28T17:50:20.157Z,6.90
2022-12-28T17:52:52.021Z,6.90
2022-12-28T17:55:21.426Z,6.92
2022-12-28T17:57:51.002Z,6.97
2022-12-28T18:00:21.229Z,6.98
2022-12-28T18:02:50.745Z,6.97
2022-12-28T18:05:20.141Z,6.96
2022-12-28T18:07:49.504Z,6.97
2022-12-28T18:10:18.609Z,7.00
2022-12-28T18:12:47.835Z,7.03
2022-12-28T18:15:18.463Z,7.06
2022-12-28T18:17:48.377Z,7.08
2022-12-28T18:20:17.724Z,7.10
2022-12-28T18:22:46.946Z,7.12
2022-12-28T18:25:19.983Z,7.13
2022-12-28T18:27:52.805Z,7.09
2022-12-28T18:30:22.420Z,7.09
2022-12-28T18:32:52.800Z,7.12
2022-12-28T18:35:25.675Z,7.11
2022-12-28T18:38:01.747Z,7.13
2022-12-28T18:40:31.048Z,7.16
2022-12-28T18:43:05.375Z,7.22
2022-12-28T18:45:37.291Z,7.27
2022-12-28T18:48:11.480Z,7.28
2022-12-28T18:50:43.522Z,7.29
2022-12-28T18:53:16.284Z,7.27
2022-12-28T18:56:01.704Z,7.18
2022-12-28T18:58:39.502Z,7.19
2022-12-28T19:04:08.126Z,7.22
2022-12-28T19:06:42.926Z,7.22
2022-12-28T19:09:21.968Z,7.28
2022-12-28T19:11:58.284Z,7.37
2022-12-28T19:14:31.364Z,7.43
2022-12-28T19:17:01.310Z,7.45
2022-12-28T19:19:43.198Z,7.48
2022-12-28T19:22:22.698Z,7.47
2022-12-28T19:24:53.546Z,7.45
2022-12-28T19:27:22.996Z,7.45
2022-12-28T19:29:55.529Z,7.42
2022-12-28T19:32:26.504Z,7.38
2022-12-28T19:35:02.737Z,7.37
2022-12-28T19:37:32.646Z,7.36
2022-12-28T19:40:06.480Z,7.39
2022-12-28T19:42:36.395Z,7.40
2022-12-28T19:45:15.269Z,7.40
2022-12-28T19:47:46.110Z,7.39
2022-12-28T19:50:21.298Z,7.39
2022-12-28T19:52:56.388Z,7.36
2022-12-28T19:55:35.308Z,7.30
2022-12-28T19:58:19.872Z,7.22
2022-12-28T20:00:53.820Z,7.14
2022-12-28T20:03:42.556Z,7.13
2022-12-28T20:06:30.060Z,7.11
2022-12-28T20:09:01.928Z,7.09
2022-12-28T20:11:37.092Z,7.11
2022-12-28T20:14:19.118Z,7.11
2022-12-28T20:16:58.615Z,7.04
2022-12-28T20:22:42.274Z,6.97
2022-12-28T20:25:18.643Z,7.01
2022-12-28T20:27:58.746Z,7.03
2022-12-28T20:30:33.357Z,7.00
2022-12-28T20:33:09.317Z,7.01
2022-12-28T20:35:42.744Z,7.00
2022-12-28T20:38:15.687Z,6.99
2022-12-28T20:40:46.973Z,6.95
2022-12-28T20:43:25.075Z,6.96
2022-12-28T20:45:58.878Z,6.97
2022-12-28T20:48:34.397Z,6.94
2022-12-28T20:51:03.923Z,6.91
2022-12-28T20:53:40.477Z,6.89
2022-12-28T20:56:14.957Z,6.87
2022-12-28T20:58:44.842Z,6.83
2022-12-28T21:01:17.479Z,6.81
2022-12-28T21:03:50.933Z,6.82
2022-12-28T21:06:20.592Z,6.81
2022-12-28T21:08:53.245Z,6.80
2022-12-28T21:11:35.031Z,6.77
2022-12-28T21:14:04.686Z,6.71
2022-12-28T21:17:21.347Z,6.63
2022-12-28T21:20:15.647Z,6.55
2022-12-28T21:22:45.251Z,6.52
2022-12-28T21:25:15.011Z,6.48
2022-12-28T21:27:44.727Z,6.47
2022-12-28T21:30:14.308Z,6.47
2022-12-28T21:32:43.655Z,6.47
2022-12-28T21:35:13.019Z,6.43
2022-12-28T21:37:42.459Z,6.32
2022-12-28T21:40:13.715Z,6.24
2022-12-28T21:42:45.886Z,6.18
2022-12-28T21:45:15.623Z,6.14
2022-12-28T21:47:48.012Z,6.12
2022-12-28T21:50:41.293Z,6.10
2022-12-28T21:56:42.915Z,5.98
2022-12-28T21:59:27.681Z,5.96
2022-12-28T22:02:20.120Z,5.94
2022-12-28T22:05:12.341Z,5.93
2022-12-28T22:07:41.592Z,5.92
2022-12-28T22:10:37.740Z,5.92
2022-12-28T22:13:07.403Z,5.92
2022-12-28T22:15:52.240Z,5.91
2022-12-28T22:18:44.869Z,5.90
2022-12-28T22:21:14.289Z,5.89
2022-12-28T22:23:43.587Z,5.90
2022-12-28T22:26:12.968Z,5.91
2022-12-28T22:28:42.175Z,5.93
2022-12-28T22:31:11.922Z,5.97
2022-12-28T22:33:41.014Z,5.99
2022-12-28T22:36:17.161Z,6.00
2022-12-28T22:38:47.046Z,5.99
2022-12-28T22:41:16.361Z,6.01
2022-12-28T22:43:51.841Z,6.01
2022-12-28T22:46:21.791Z,6.03
2022-12-28T22:48:51.131Z,6.05
2022-12-28T22:51:20.266Z,6.08
2022-12-28T22:53:50.121Z,6.08
2022-12-28T22:56:22.471Z,6.08
2022-12-28T22:58:51.881Z,6.08
2022-12-28T23:01:21.639Z,6.10
2022-12-28T23:03:51.954Z,6.11
2022-12-28T23:06:27.422Z,6.11
2022-12-28T23:09:00.185Z,6.11
2022-12-28T23:11:39.683Z,6.12
2022-12-28T23:14:42.544Z,6.14
2022-12-28T23:20:31.796Z,6.12
2022-12-28T23:23:19.847Z,6.12
2022-12-28T23:26:24.160Z,6.13
2022-12-28T23:28:53.363Z,6.16
2022-12-28T23:31:25.209Z,6.20
2022-12-28T23:33:55.337Z,6.24
2022-12-28T23:36:24.601Z,6.25
2022-12-28T23:38:54.064Z,6.28
2022-12-28T23:41:41.666Z,6.28
2022-12-28T23:44:10.812Z,6.28
2022-12-28T23:46:40.322Z,6.29
2022-12-28T23:49:09.942Z,6.30
2022-12-28T23:51:39.076Z,6.32
2022-12-28T23:54:09.880Z,6.32
2022-12-28T23:56:41.419Z,6.29
2022-12-28T23:59:10.959Z,6.25
